createdAt,value
2019-04-26T00:02:42.565Z,10.10
2019-04-26T00:05:12.322Z,10.00
2019-04-26T00:07:42.056Z,10.00
2019-04-26T00:10:31.357Z,10.00
2019-04-26T00:13:12.435Z,10.00
2019-04-26T00:16:03.907Z,9.90
2019-04-26T00:18:33.477Z,9.90
2019-04-26T00:21:03.222Z,10.00
2019-04-26T00:23:32.702Z,10.10
2019-04-26T00:26:02.216Z,10.20
2019-04-26T00:28:31.846Z,10.20
2019-04-26T00:31:01.706Z,10.30
2019-04-26T00:33:31.510Z,10.30
2019-04-26T00:36:01.005Z,10.20
2019-04-26T00:38:30.518Z,10.20
2019-04-26T00:41:00.250Z,10.10
2019-04-26T00:43:30.285Z,10.00
2019-04-26T00:46:02.050Z,10.00
2019-04-26T00:48:32.942Z,10.00
2019-04-26T00:51:04.761Z,9.90
2019-04-26T00:53:35.474Z,9.90
2019-04-26T00:56:06.672Z,9.80
2019-04-26T00:58:36.835Z,9.80
2019-04-26T01:01:07.198Z,9.90
2019-04-26T01:03:36.797Z,9.90
2019-04-26T01:06:08.531Z,9.90
2019-04-26T01:08:38.006Z,10.00
2019-04-26T01:11:07.461Z,9.90
2019-04-26T01:13:37.274Z,9.80
2019-04-26T01:16:06.982Z,9.70
2019-04-26T01:18:37.114Z,9.80
2019-04-26T01:21:08.526Z,9.80
2019-04-26T01:23:40.903Z,9.90
2019-04-26T01:26:17.799Z,9.90
2019-04-26T01:28:58.187Z,9.90
2019-04-26T01:31:30.412Z,9.80
2019-04-26T01:34:06.182Z,9.80
2019-04-26T01:36:36.562Z,9.80
2019-04-26T01:39:16.914Z,9.90
2019-04-26T01:41:52.327Z,9.90
2019-04-26T01:44:32.750Z,9.80
2019-04-26T01:47:02.148Z,9.80
2019-04-26T01:49:32.497Z,9.70
2019-04-26T01:52:09.280Z,9.70
2019-04-26T01:54:42.445Z,9.60
2019-04-26T01:57:12.757Z,9.60
2019-04-26T01:59:46.036Z,9.60
2019-04-26T02:02:33.113Z,9.50
2019-04-26T02:05:05.668Z,9.50
2019-04-26T02:07:41.764Z,9.50
2019-04-26T02:10:13.434Z,9.40
2019-04-26T02:12:48.785Z,9.40
2019-04-26T02:15:21.412Z,9.50
2019-04-26T02:17:53.795Z,9.60
2019-04-26T02:21:39.715Z,9.70
2019-04-26T02:24:23.915Z,9.70
2019-04-26T02:26:54.948Z,9.80
2019-04-26T02:29:27.034Z,9.60
2019-04-26T02:32:00.672Z,9.60
2019-04-26T02:34:33.825Z,9.60
2019-04-26T02:37:06.532Z,9.60
2019-04-26T02:39:39.779Z,9.50
2019-04-26T02:42:28.814Z,9.40
2019-04-26T02:45:26.925Z,9.50
2019-04-26T02:48:37.925Z,9.40
2019-04-26T02:51:12.494Z,9.40
2019-04-26T02:54:02.016Z,9.40
2019-04-26T02:56:38.284Z,9.40
2019-04-26T02:59:38.770Z,9.40
2019-04-26T03:02:13.587Z,9.40
2019-04-26T03:04:45.982Z,9.30
2019-04-26T03:07:44.276Z,9.40
2019-04-26T03:10:14.244Z,9.40
2019-04-26T03:12:45.887Z,9.40
2019-04-26T03:15:35.266Z,9.40
2019-04-26T03:18:25.156Z,9.50
2019-04-26T03:21:00.238Z,9.40
2019-04-26T03:23:59.021Z,9.40
2019-04-26T03:26:41.579Z,9.40
2019-04-26T03:29:42.042Z,9.50
2019-04-26T03:32:27.261Z,9.50
2019-04-26T03:35:22.230Z,9.50
2019-04-26T03:38:17.501Z,9.50
2019-04-26T03:41:05.515Z,9.50
2019-04-26T03:43:58.115Z,9.50
2019-04-26T03:46:41.175Z,9.60
2019-04-26T03:49:33.889Z,9.60
2019-04-26T03:52:26.979Z,9.60
2019-04-26T03:54:59.952Z,9.50
2019-04-26T03:57:44.830Z,9.60
2019-04-26T04:00:43.421Z,9.40
2019-04-26T04:03:39.310Z,9.40
2019-04-26T04:06:12.298Z,9.40
2019-04-26T04:08:53.555Z,9.30
2019-04-26T04:11:28.281Z,9.40
2019-04-26T04:14:06.084Z,9.40
2019-04-26T04:17:07.050Z,9.50
2019-04-26T04:20:12.342Z,9.50
2019-04-26T04:22:47.487Z,9.60
2019-04-26T04:25:24.308Z,9.60
2019-04-26T04:28:03.541Z,9.70
2019-04-26T04:31:13.385Z,9.70
2019-04-26T04:34:14.047Z,9.60
2019-04-26T04:36:51.508Z,9.70
2019-04-26T04:39:31.082Z,9.70
2019-04-26T04:42:28.460Z,9.80
2019-04-26T04:45:32.111Z,9.90
2019-04-26T04:48:36.310Z,9.90
2019-04-26T04:51:44.957Z,9.80
2019-04-26T04:54:18.997Z,9.80
2019-04-26T04:57:00.928Z,9.90
2019-04-26T04:59:35.269Z,10.00
2019-04-26T05:02:59.731Z,10.00
2019-04-26T05:06:06.664Z,10.00
2019-04-26T05:08:56.713Z,10.10
2019-04-26T05:11:32.590Z,10.00
2019-04-26T05:14:10.205Z,10.00
2019-04-26T05:16:57.122Z,9.90
2019-04-26T05:20:08.833Z,10.00
2019-04-26T05:23:21.548Z,10.00
2019-04-26T05:26:46.002Z,10.00
2019-04-26T05:29:54.047Z,9.90
2019-04-26T05:33:09.314Z,9.90
2019-04-26T05:36:00.381Z,9.80
2019-04-26T05:38:51.200Z,9.90
2019-04-26T05:41:37.088Z,9.80
2019-04-26T05:44:26.706Z,9.80
2019-04-26T05:47:41.061Z,9.70
2019-04-26T05:51:15.972Z,9.70
2019-04-26T05:54:19.972Z,9.70
2019-04-26T05:57:23.562Z,9.80
2019-04-26T06:00:45.184Z,9.80
2019-04-26T06:04:11.315Z,9.80
2019-04-26T06:07:06.403Z,9.60
2019-04-26T06:10:31.919Z,9.60
2019-04-26T06:13:28.721Z,9.60
2019-04-26T06:16:10.044Z,9.80
2019-04-26T06:18:55.184Z,9.60
2019-04-26T06:21:53.924Z,9.60
2019-04-26T06:25:07.057Z,9.60
2019-04-26T06:27:54.474Z,9.60
2019-04-26T06:30:46.477Z,9.60
2019-04-26T06:33:31.352Z,9.60
2019-04-26T06:36:06.391Z,9.50
2019-04-26T06:39:22.273Z,9.60
2019-04-26T06:42:30.312Z,9.60
2019-04-26T06:45:55.718Z,9.60
2019-04-26T06:48:50.952Z,9.50
2019-04-26T06:51:26.344Z,9.50
2019-04-26T06:54:19.920Z,9.40
2019-04-26T06:57:21.578Z,9.30
2019-04-26T07:00:17.129Z,9.40
2019-04-26T07:03:08.800Z,9.30
2019-04-26T07:05:40.984Z,9.20
2019-04-26T07:08:38.682Z,9.30
2019-04-26T07:12:15.319Z,9.40
2019-04-26T07:15:27.951Z,9.30
2019-04-26T07:18:06.321Z,9.20
2019-04-26T07:20:48.875Z,9.20
2019-04-26T07:24:08.482Z,9.20
2019-04-26T07:27:20.852Z,9.00
2019-04-26T07:30:23.910Z,8.90
2019-04-26T07:33:25.072Z,8.80
2019-04-26T07:36:53.224Z,8.90
2019-04-26T07:40:24.009Z,8.80
2019-04-26T07:43:21.090Z,8.90
2019-04-26T07:46:04.327Z,8.90
2019-04-26T07:49:14.183Z,8.80
2019-04-26T07:51:56.817Z,8.80
2019-04-26T07:54:54.075Z,8.90
2019-04-26T07:57:50.563Z,8.80
2019-04-26T08:00:23.681Z,9.10
2019-04-26T08:03:19.652Z,9.10
2019-04-26T08:06:04.573Z,9.20
2019-04-26T08:08:43.582Z,9.10
2019-04-26T08:11:20.713Z,9.10
2019-04-26T08:14:10.657Z,9.10
2019-04-26T08:16:53.179Z,9.20
2019-04-26T08:19:25.160Z,9.30
2019-04-26T08:22:11.609Z,9.30
2019-04-26T08:24:31.000Z,9.30
2019-04-26T08:27:19.339Z,9.30
2019-04-26T08:29:43.439Z,9.30
2019-04-26T08:32:21.928Z,9.30
2019-04-26T08:35:08.158Z,9.30
2019-04-26T08:37:45.408Z,9.20
2019-04-26T08:40:23.094Z,9.30
2019-04-26T08:42:57.371Z,9.10
2019-04-26T08:45:36.041Z,9.20
2019-04-26T08:48:32.565Z,9.10
2019-04-26T08:51:04.807Z,9.20
2019-04-26T08:53:36.801Z,9.20
2019-04-26T08:56:07.432Z,9.30
2019-04-26T08:58:40.155Z,9.40
2019-04-26T09:01:37.626Z,9.50
2019-04-26T09:04:15.562Z,9.60
2019-04-26T09:06:54.096Z,9.60
2019-04-26T09:09:26.924Z,9.60
2019-04-26T09:11:59.936Z,9.70
2019-04-26T09:14:32.044Z,9.50
2019-04-26T09:17:01.592Z,9.50
2019-04-26T09:19:32.243Z,9.50
2019-04-26T09:22:13.152Z,9.60
2019-04-26T09:24:45.938Z,9.50
2019-04-26T09:27:26.534Z,9.50
2019-04-26T09:30:09.336Z,9.60
2019-04-26T09:33:10.270Z,9.60
2019-04-26T09:35:39.758Z,9.70
2019-04-26T09:38:09.185Z,9.70
2019-04-26T09:40:38.699Z,9.80
2019-04-26T09:43:27.171Z,9.50
2019-04-26T09:46:06.315Z,9.50
2019-04-26T09:48:51.717Z,9.60
2019-04-26T09:51:21.389Z,9.90
2019-04-26T09:53:51.102Z,9.80
2019-04-26T09:56:21.116Z,9.70
2019-04-26T09:58:50.816Z,9.50
2019-04-26T10:01:24.163Z,9.40
2019-04-26T10:03:51.625Z,9.50
2019-04-26T10:06:21.300Z,9.60
2019-04-26T10:08:52.430Z,9.50
2019-04-26T10:11:24.776Z,9.40
2019-04-26T10:14:01.692Z,9.60
2019-04-26T10:16:42.347Z,9.80
2019-04-26T10:19:14.277Z,9.70
2019-04-26T10:21:43.939Z,9.60
2019-04-26T10:24:13.383Z,9.50
2019-04-26T10:26:43.185Z,9.40
2019-04-26T10:29:12.936Z,9.50
2019-04-26T10:31:42.704Z,9.80
2019-04-26T10:34:13.038Z,9.90
2019-04-26T10:36:42.463Z,9.80
2019-04-26T10:39:12.781Z,9.90
2019-04-26T10:41:42.184Z,9.90
2019-04-26T10:44:11.921Z,9.80
2019-04-26T10:46:41.357Z,9.90
2019-04-26T10:49:38.665Z,10.20
2019-04-26T10:52:12.050Z,10.30
2019-04-26T10:54:44.616Z,10.30
2019-04-26T10:57:20.462Z,10.40
2019-04-26T10:59:53.205Z,10.50
2019-04-26T11:02:22.885Z,10.40
2019-04-26T11:04:52.496Z,10.30
2019-04-26T11:07:21.903Z,10.30
2019-04-26T11:09:51.666Z,10.30
2019-04-26T11:12:21.581Z,10.10
2019-04-26T11:14:53.324Z,10.10
2019-04-26T11:17:22.172Z,10.20
2019-04-26T11:19:52.242Z,10.20
2019-04-26T11:22:28.969Z,10.20
2019-04-26T11:24:53.841Z,10.10
2019-04-26T11:27:24.281Z,10.30
2019-04-26T11:29:54.254Z,10.20
2019-04-26T11:32:23.743Z,10.30
2019-04-26T11:34:54.536Z,10.70
2019-04-26T11:37:24.391Z,11.00
2019-04-26T11:39:53.904Z,10.90
2019-04-26T11:42:23.564Z,10.80
2019-04-26T11:45:05.386Z,10.60
2019-04-26T11:47:24.300Z,10.50
2019-04-26T11:49:53.743Z,10.70
2019-04-26T11:52:23.389Z,10.80
2019-04-26T11:54:55.163Z,10.80
2019-04-26T11:57:24.032Z,10.70
2019-04-26T11:59:53.871Z,10.70
2019-04-26T12:02:23.285Z,10.60
2019-04-26T12:05:01.604Z,10.70
2019-04-26T12:07:34.532Z,10.80
2019-04-26T12:10:05.795Z,10.70
2019-04-26T12:12:36.517Z,10.60
2019-04-26T12:15:08.645Z,10.60
2019-04-26T12:17:37.293Z,10.60
2019-04-26T12:20:06.981Z,10.60
2019-04-26T12:22:39.451Z,10.80
2019-04-26T12:25:08.278Z,10.80
2019-04-26T12:27:38.186Z,10.90
2019-04-26T12:30:07.791Z,10.80
2019-04-26T12:32:37.226Z,11.00
2019-04-26T12:35:06.989Z,11.20
2019-04-26T12:37:36.648Z,11.20
2019-04-26T12:40:11.276Z,11.50
2019-04-26T12:42:39.096Z,11.90
2019-04-26T12:45:36.352Z,11.80
2019-04-26T12:48:08.189Z,11.80
2019-04-26T12:50:37.870Z,11.80
2019-04-26T12:53:07.548Z,11.70
2019-04-26T12:55:37.319Z,11.90
2019-04-26T12:58:06.732Z,12.10
2019-04-26T13:00:37.488Z,12.30
2019-04-26T13:03:19.385Z,12.30
2019-04-26T13:05:38.427Z,12.40
2019-04-26T13:08:07.908Z,12.10
2019-04-26T13:10:54.819Z,12.00
2019-04-26T13:13:35.344Z,11.80
2019-04-26T13:16:11.548Z,11.90
2019-04-26T13:18:48.507Z,12.20
2019-04-26T13:21:17.977Z,12.20
2019-04-26T13:23:48.312Z,11.90
2019-04-26T13:26:17.858Z,11.60
2019-04-26T13:28:47.332Z,11.70
2019-04-26T13:31:16.785Z,11.60
2019-04-26T13:33:46.516Z,11.20
2019-04-26T13:36:16.302Z,11.10
2019-04-26T13:38:45.742Z,10.90
2019-04-26T13:41:15.202Z,10.80
2019-04-26T13:43:44.887Z,10.80
2019-04-26T13:46:38.194Z,10.80
2019-04-26T13:49:33.022Z,10.90
2019-04-26T13:52:08.076Z,10.90
2019-04-26T13:54:37.530Z,11.30
2019-04-26T13:57:10.055Z,11.30
2019-04-26T13:59:38.608Z,11.20
2019-04-26T14:02:11.653Z,11.10
2019-04-26T14:04:41.147Z,11.10
2019-04-26T14:07:10.306Z,11.00
2019-04-26T14:09:39.758Z,10.90
2019-04-26T14:12:18.148Z,11.00
2019-04-26T14:14:40.430Z,11.10
2019-04-26T14:17:09.901Z,11.30
2019-04-26T14:19:39.402Z,11.30
2019-04-26T14:22:09.440Z,11.50
2019-04-26T14:24:57.084Z,11.70
2019-04-26T14:27:45.352Z,11.70
2019-04-26T14:30:15.077Z,11.90
2019-04-26T14:32:44.811Z,11.90
2019-04-26T14:35:15.673Z,11.70
2019-04-26T14:37:49.702Z,11.90
2019-04-26T14:40:17.692Z,11.70
2019-04-26T14:42:48.881Z,11.90
2019-04-26T14:45:23.553Z,12.20
2019-04-26T14:47:49.708Z,12.30
2019-04-26T14:50:19.186Z,12.10
2019-04-26T14:52:48.653Z,12.40
2019-04-26T14:55:21.085Z,12.30
2019-04-26T14:57:51.242Z,12.60
2019-04-26T15:00:26.205Z,12.80
2019-04-26T15:03:03.774Z,12.50
2019-04-26T15:05:43.034Z,12.50
2019-04-26T15:08:13.351Z,12.40
2019-04-26T15:10:46.763Z,12.40
2019-04-26T15:13:20.038Z,12.50
2019-04-26T15:15:46.261Z,12.50
2019-04-26T15:18:15.806Z,12.20
2019-04-26T15:20:45.530Z,12.00
2019-04-26T15:23:14.989Z,11.90
2019-04-26T15:25:48.418Z,12.10
2019-04-26T15:28:15.545Z,12.00
2019-04-26T15:30:46.920Z,12.10
2019-04-26T15:33:22.745Z,12.10
2019-04-26T15:35:59.153Z,12.20
2019-04-26T15:38:35.205Z,12.00
2019-04-26T15:41:16.718Z,12.30
2019-04-26T15:44:05.145Z,12.40
2019-04-26T15:46:56.686Z,12.30
2019-04-26T15:49:43.885Z,12.20
2019-04-26T15:52:14.011Z,12.20
2019-04-26T15:54:43.536Z,12.30
2019-04-26T15:57:13.093Z,12.20
2019-04-26T15:59:43.048Z,12.30
2019-04-26T16:02:12.755Z,12.20
2019-04-26T16:04:42.497Z,12.40
2019-04-26T16:07:15.081Z,12.20
2019-04-26T16:09:43.780Z,12.40
2019-04-26T16:12:13.501Z,12.40
2019-04-26T16:14:43.371Z,12.50
2019-04-26T16:17:12.814Z,12.30
2019-04-26T16:19:42.302Z,12.40
2019-04-26T16:22:11.749Z,12.30
2019-04-26T16:24:42.924Z,12.40
2019-04-26T16:27:12.647Z,12.30
2019-04-26T16:30:03.513Z,12.10
2019-04-26T16:32:52.689Z,12.00
2019-04-26T16:35:25.176Z,12.00
2019-04-26T16:37:52.113Z,11.90
2019-04-26T16:40:25.761Z,12.00
2019-04-26T16:42:56.575Z,12.00
2019-04-26T16:45:25.020Z,11.80
2019-04-26T16:47:54.820Z,11.80
2019-04-26T16:50:31.364Z,11.70
2019-04-26T16:52:55.440Z,11.70
2019-04-26T16:55:24.909Z,11.60
2019-04-26T16:57:58.030Z,11.70
2019-04-26T17:00:47.013Z,11.70
2019-04-26T17:03:02.775Z,11.60
2019-04-26T17:05:45.431Z,11.50
2019-04-26T17:08:04.169Z,11.40
2019-04-26T17:10:30.201Z,11.30
2019-04-26T17:12:59.634Z,11.30
2019-04-26T17:15:29.126Z,11.20
2019-04-26T17:17:59.319Z,11.30
2019-04-26T17:20:28.793Z,11.30
2019-04-26T17:23:23.999Z,11.20
2019-04-26T17:26:13.321Z,11.20
2019-04-26T17:28:43.006Z,11.20
2019-04-26T17:31:12.555Z,11.20
2019-04-26T17:33:42.318Z,11.10
2019-04-26T17:36:15.668Z,11.10
2019-04-26T17:38:42.841Z,11.10
2019-04-26T17:41:13.653Z,11.10
2019-04-26T17:43:47.502Z,11.10
2019-04-26T17:46:17.953Z,11.00
2019-04-26T17:48:49.437Z,11.00
2019-04-26T17:51:19.135Z,10.90
2019-04-26T17:53:49.543Z,10.90
2019-04-26T17:56:19.250Z,10.90
2019-04-26T17:58:54.148Z,10.90
2019-04-26T18:01:39.843Z,10.80
2019-04-26T18:03:55.626Z,10.80
2019-04-26T18:06:29.483Z,10.80
2019-04-26T18:08:55.198Z,10.80
2019-04-26T18:11:25.132Z,10.80
2019-04-26T18:13:54.751Z,10.80
2019-04-26T18:16:29.196Z,10.80
2019-04-26T18:19:33.479Z,10.70
2019-04-26T18:22:14.675Z,10.70
2019-04-26T18:24:44.135Z,10.70
2019-04-26T18:27:14.778Z,10.70
2019-04-26T18:29:44.250Z,10.70
2019-04-26T18:32:13.813Z,10.70
2019-04-26T18:34:43.299Z,10.70
2019-04-26T18:37:13.248Z,10.70
2019-04-26T18:39:43.150Z,10.60
2019-04-26T18:42:13.911Z,10.50
2019-04-26T18:44:47.944Z,10.50
2019-04-26T18:47:37.653Z,10.60
2019-04-26T18:50:07.748Z,10.60
2019-04-26T18:52:40.040Z,10.70
2019-04-26T18:55:16.341Z,10.60
2019-04-26T18:57:47.392Z,10.60
2019-04-26T19:00:45.503Z,10.60
2019-04-26T19:03:16.037Z,10.50
2019-04-26T19:05:45.545Z,10.50
2019-04-26T19:08:15.126Z,10.50
2019-04-26T19:10:44.957Z,10.50
2019-04-26T19:13:30.922Z,10.50
2019-04-26T19:16:10.669Z,10.60
2019-04-26T19:18:51.800Z,10.50
2019-04-26T19:21:39.088Z,10.50
2019-04-26T19:24:07.855Z,10.50
2019-04-26T19:26:36.440Z,10.50
2019-04-26T19:29:15.516Z,10.50
2019-04-26T19:31:37.046Z,10.50
2019-04-26T19:34:06.501Z,10.50
2019-04-26T19:36:35.969Z,10.50
2019-04-26T19:39:07.076Z,10.50
2019-04-26T19:41:36.581Z,10.50
2019-04-26T19:44:06.599Z,10.50
2019-04-26T19:47:07.027Z,10.50
2019-04-26T19:50:09.635Z,10.50
2019-04-26T19:52:56.694Z,10.50
2019-04-26T19:55:47.352Z,10.50
2019-04-26T19:58:20.606Z,10.40
2019-04-26T20:00:49.459Z,10.40
2019-04-26T20:03:19.026Z,10.30
2019-04-26T20:05:48.474Z,10.30
2019-04-26T20:08:17.936Z,10.20
2019-04-26T20:10:47.666Z,10.10
2019-04-26T20:13:17.138Z,10.10
2019-04-26T20:15:46.858Z,10.00
2019-04-26T20:18:17.578Z,10.00
2019-04-26T20:20:47.324Z,10.00
2019-04-26T20:23:19.321Z,10.00
2019-04-26T20:25:48.150Z,10.00
2019-04-26T20:28:17.915Z,10.00
2019-04-26T20:31:07.665Z,10.00
2019-04-26T20:33:36.061Z,10.10
2019-04-26T20:36:05.630Z,10.10
2019-04-26T20:38:42.578Z,10.10
2019-04-26T20:41:06.320Z,10.10
2019-04-26T20:43:43.528Z,10.10
2019-04-26T20:46:14.018Z,10.00
2019-04-26T20:48:38.502Z,10.00
2019-04-26T20:51:10.996Z,10.00
2019-04-26T20:53:41.342Z,10.00
2019-04-26T20:56:16.253Z,10.00
2019-04-26T20:58:45.596Z,9.90
2019-04-26T21:01:14.312Z,9.90
2019-04-26T21:03:46.066Z,9.90
2019-04-26T21:06:15.334Z,9.90
2019-04-26T21:08:45.083Z,9.90
2019-04-26T21:11:14.577Z,9.90
2019-04-26T21:13:44.342Z,9.90
2019-04-26T21:16:15.506Z,9.90
2019-04-26T21:18:45.162Z,9.80
2019-04-26T21:21:16.139Z,9.80
2019-04-26T21:23:47.641Z,9.80
2019-04-26T21:26:32.233Z,9.80
2019-04-26T21:29:26.498Z,9.80
2019-04-26T21:32:20.373Z,9.70
2019-04-26T21:34:50.784Z,9.70
2019-04-26T21:37:39.757Z,9.70
2019-04-26T21:40:26.285Z,9.60
2019-04-26T21:42:59.442Z,9.60
2019-04-26T21:45:30.766Z,9.60
2019-04-26T21:47:58.103Z,9.60
2019-04-26T21:50:29.121Z,9.50
2019-04-26T21:53:05.186Z,9.50
2019-04-26T21:55:35.224Z,9.60
2019-04-26T21:58:02.703Z,9.60
2019-04-26T22:00:50.242Z,9.60
2019-04-26T22:03:20.273Z,9.50
2019-04-26T22:05:50.789Z,9.50
2019-04-26T22:08:24.954Z,9.50
2019-04-26T22:10:54.321Z,9.50
2019-04-26T22:13:27.001Z,9.50
2019-04-26T22:16:33.374Z,9.50
2019-04-26T22:19:04.178Z,9.50
2019-04-26T22:21:43.538Z,9.50
2019-04-26T22:24:23.377Z,9.40
2019-04-26T22:26:53.239Z,9.40
2019-04-26T22:29:23.029Z,9.40
2019-04-26T22:31:54.569Z,9.40
2019-04-26T22:34:23.878Z,9.40
2019-04-26T22:36:53.758Z,9.30
2019-04-26T22:39:24.528Z,9.30
2019-04-26T22:41:54.339Z,9.30
2019-04-26T22:44:34.438Z,9.40
2019-04-26T22:47:25.837Z,9.30
2019-04-26T22:49:55.484Z,9.40
2019-04-26T22:52:24.941Z,9.40
2019-04-26T22:54:54.430Z,9.40
2019-04-26T22:57:25.231Z,9.50
2019-04-26T22:59:55.093Z,9.40
2019-04-26T23:05:53.729Z,9.40
2019-04-26T23:11:19.625Z,9.50
2019-04-26T23:14:11.606Z,9.50
2019-04-26T23:17:07.635Z,9.40
2019-04-26T23:19:54.226Z,9.40
2019-04-26T23:22:26.330Z,9.40
2019-04-26T23:27:28.537Z,9.40
2019-04-26T23:29:58.527Z,9.30
2019-04-26T23:32:28.205Z,9.30
2019-04-26T23:34:58.226Z,9.20
2019-04-26T23:37:29.178Z,9.20
2019-04-26T23:39:58.842Z,9.20
2019-04-26T23:42:28.298Z,9.20
2019-04-26T23:44:58.045Z,9.20
2019-04-26T23:47:31.991Z,9.10
2019-04-26T23:50:00.565Z,9.10
2019-04-26T23:52:29.983Z,9.10
2019-04-26T23:54:59.365Z,9.00
2019-04-26T23:57:31.340Z,9.10
